sensor_id;sensor_type;location;lat;lon;timestamp;P1;durP1;ratioP1;P2;durP2;ratioP2
17151;SDS011;8691;50.828;4.700;2023-02-27T00:00:59;3.07;;;2.70;;
17151;SDS011;8691;50.828;4.700;2023-02-27T00:03:26;6.43;;;3.07;;
17151;SDS011;8691;50.828;4.700;2023-02-27T00:05:53;7.10;;;3.10;;
17151;SDS011;8691;50.828;4.700;2023-02-27T00:08:20;4.95;;;3.10;;
17151;SDS011;8691;50.828;4.700;2023-02-27T00:10:47;4.40;;;2.60;;
17151;SDS011;8691;50.828;4.700;2023-02-27T00:13:14;8.27;;;2.93;;
17151;SDS011;8691;50.828;4.700;2023-02-27T00:15:40;6.00;;;2.70;;
17151;SDS011;8691;50.828;4.700;2023-02-27T00:18:08;3.00;;;2.80;;
17151;SDS011;8691;50.828;4.700;2023-02-27T00:20:34;5.20;;;2.47;;
17151;SDS011;8691;50.828;4.700;2023-02-27T00:23:01;2.67;;;2.47;;
17151;SDS011;8691;50.828;4.700;2023-02-27T00:25:27;4.10;;;2.53;;
17151;SDS011;8691;50.828;4.700;2023-02-27T00:27:54;4.57;;;2.70;;
17151;SDS011;8691;50.828;4.700;2023-02-27T00:30:21;4.73;;;2.93;;
17151;SDS011;8691;50.828;4.700;2023-02-27T00:32:48;3.80;;;2.90;;
17151;SDS011;8691;50.828;4.700;2023-02-27T00:35:15;4.13;;;2.60;;
17151;SDS011;8691;50.828;4.700;2023-02-27T00:37:41;5.17;;;2.60;;
17151;SDS011;8691;50.828;4.700;2023-02-27T00:40:09;4.63;;;2.70;;
17151;SDS011;8691;50.828;4.700;2023-02-27T00:42:36;4.67;;;2.80;;
17151;SDS011;8691;50.828;4.700;2023-02-27T00:45:03;7.37;;;3.00;;
17151;SDS011;8691;50.828;4.700;2023-02-27T00:47:30;5.95;;;2.90;;
17151;SDS011;8691;50.828;4.700;2023-02-27T00:49:56;4.90;;;2.60;;
17151;SDS011;8691;50.828;4.700;2023-02-27T00:52:24;7.10;;;2.50;;
17151;SDS011;8691;50.828;4.700;2023-02-27T00:54:50;3.90;;;2.80;;
17151;SDS011;8691;50.828;4.700;2023-02-27T00:57:18;4.40;;;3.23;;
17151;SDS011;8691;50.828;4.700;2023-02-27T00:59:44;3.57;;;2.30;;
17151;SDS011;8691;50.828;4.700;2023-02-27T01:02:12;3.77;;;2.60;;
17151;SDS011;8691;50.828;4.700;2023-02-27T01:04:38;3.83;;;3.00;;
17151;SDS011;8691;50.828;4.700;2023-02-27T01:07:06;2.60;;;2.40;;
17151;SDS011;8691;50.828;4.700;2023-02-27T01:09:33;5.83;;;2.90;;
17151;SDS011;8691;50.828;4.700;2023-02-27T01:12:00;3.17;;;2.23;;
17151;SDS011;8691;50.828;4.700;2023-02-27T01:14:28;4.40;;;2.40;;
17151;SDS011;8691;50.828;4.700;2023-02-27T01:16:55;4.73;;;2.70;;
17151;SDS011;8691;50.828;4.700;2023-02-27T01:19:21;5.63;;;2.43;;
17151;SDS011;8691;50.828;4.700;2023-02-27T01:21:49;3.23;;;2.70;;
17151;SDS011;8691;50.828;4.700;2023-02-27T01:24:15;4.80;;;2.50;;
17151;SDS011;8691;50.828;4.700;2023-02-27T01:26:43;2.60;;;2.40;;
17151;SDS011;8691;50.828;4.700;2023-02-27T01:29:09;3.90;;;2.47;;
17151;SDS011;8691;50.828;4.700;2023-02-27T01:31:37;3.37;;;2.53;;
17151;SDS011;8691;50.828;4.700;2023-02-27T01:34:03;5.70;;;2.53;;
17151;SDS011;8691;50.828;4.700;2023-02-27T01:36:30;4.63;;;2.47;;
17151;SDS011;8691;50.828;4.700;2023-02-27T01:38:57;6.33;;;3.10;;
17151;SDS011;8691;50.828;4.700;2023-02-27T01:41:24;5.90;;;2.97;;
17151;SDS011;8691;50.828;4.700;2023-02-27T01:44:01;4.97;;;2.83;;
17151;SDS011;8691;50.828;4.700;2023-02-27T01:46:33;7.37;;;2.60;;
17151;SDS011;8691;50.828;4.700;2023-02-27T01:51:48;3.30;;;2.40;;
17151;SDS011;8691;50.828;4.700;2023-02-27T01:54:21;3.17;;;2.60;;
17151;SDS011;8691;50.828;4.700;2023-02-27T01:56:40;6.53;;;2.77;;
17151;SDS011;8691;50.828;4.700;2023-02-27T01:59:07;5.90;;;2.53;;
17151;SDS011;8691;50.828;4.700;2023-02-27T02:01:34;2.90;;;2.70;;
17151;SDS011;8691;50.828;4.700;2023-02-27T02:06:28;4.33;;;2.40;;
17151;SDS011;8691;50.828;4.700;2023-02-27T02:08:56;4.93;;;2.30;;
17151;SDS011;8691;50.828;4.700;2023-02-27T02:11:23;2.73;;;2.27;;
17151;SDS011;8691;50.828;4.700;2023-02-27T02:13:51;3.37;;;2.93;;
17151;SDS011;8691;50.828;4.700;2023-02-27T02:19:05;2.07;;;1.97;;
17151;SDS011;8691;50.828;4.700;2023-02-27T02:21:41;8.10;;;4.00;;
17151;SDS011;8691;50.828;4.700;2023-02-27T02:26:49;5.23;;;3.33;;
17151;SDS011;8691;50.828;4.700;2023-02-27T02:29:44;3.87;;;2.83;;
17151;SDS011;8691;50.828;4.700;2023-02-27T02:43:01;2.50;;;2.30;;
17151;SDS011;8691;50.828;4.700;2023-02-27T02:45:47;4.13;;;2.60;;
17151;SDS011;8691;50.828;4.700;2023-02-27T02:48:27;4.27;;;2.53;;
17151;SDS011;8691;50.828;4.700;2023-02-27T02:56:24;2.97;;;2.77;;
17151;SDS011;8691;50.828;4.700;2023-02-27T02:59:05;2.07;;;1.97;;
17151;SDS011;8691;50.828;4.700;2023-02-27T03:01:30;2.57;;;2.37;;
17151;SDS011;8691;50.828;4.700;2023-02-27T03:04:01;6.13;;;2.70;;
17151;SDS011;8691;50.828;4.700;2023-02-27T03:06:45;2.80;;;2.53;;
17151;SDS011;8691;50.828;4.700;2023-02-27T03:09:07;5.18;;;2.62;;
17151;SDS011;8691;50.828;4.700;2023-02-27T03:11:31;7.18;;;3.38;;
17151;SDS011;8691;50.828;4.700;2023-02-27T03:14:02;2.70;;;2.50;;
17151;SDS011;8691;50.828;4.700;2023-02-27T03:16:36;4.32;;;3.00;;
17151;SDS011;8691;50.828;4.700;2023-02-27T03:19:06;4.47;;;3.00;;
17151;SDS011;8691;50.828;4.700;2023-02-27T03:21:36;5.90;;;3.00;;
17151;SDS011;8691;50.828;4.700;2023-02-27T03:24:04;3.73;;;2.47;;
17151;SDS011;8691;50.828;4.700;2023-02-27T03:26:35;2.90;;;2.57;;
17151;SDS011;8691;50.828;4.700;2023-02-27T03:29:02;4.13;;;2.40;;
17151;SDS011;8691;50.828;4.700;2023-02-27T03:31:37;3.57;;;2.57;;
17151;SDS011;8691;50.828;4.700;2023-02-27T03:34:09;5.07;;;3.17;;
17151;SDS011;8691;50.828;4.700;2023-02-27T03:36:43;4.73;;;3.03;;
17151;SDS011;8691;50.828;4.700;2023-02-27T03:41:49;5.80;;;2.90;;
17151;SDS011;8691;50.828;4.700;2023-02-27T03:44:22;3.33;;;2.70;;
17151;SDS011;8691;50.828;4.700;2023-02-27T03:46:47;5.10;;;3.22;;
17151;SDS011;8691;50.828;4.700;2023-02-27T03:49:14;4.70;;;2.92;;
17151;SDS011;8691;50.828;4.700;2023-02-27T03:51:41;5.53;;;3.37;;
17151;SDS011;8691;50.828;4.700;2023-02-27T03:56:58;3.10;;;2.80;;
17151;SDS011;8691;50.828;4.700;2023-02-27T03:59:23;5.05;;;3.22;;
17151;SDS011;8691;50.828;4.700;2023-02-27T04:01:50;3.43;;;2.80;;
17151;SDS011;8691;50.828;4.700;2023-02-27T04:04:17;7.17;;;3.20;;
17151;SDS011;8691;50.828;4.700;2023-02-27T04:06:44;4.93;;;2.90;;
17151;SDS011;8691;50.828;4.700;2023-02-27T04:09:48;4.83;;;2.63;;
17151;SDS011;8691;50.828;4.700;2023-02-27T04:12:47;4.80;;;2.60;;
17151;SDS011;8691;50.828;4.700;2023-02-27T04:20:43;5.67;;;3.27;;
17151;SDS011;8691;50.828;4.700;2023-02-27T04:23:11;7.00;;;3.50;;
17151;SDS011;8691;50.828;4.700;2023-02-27T04:25:42;6.00;;;3.47;;
17151;SDS011;8691;50.828;4.700;2023-02-27T04:28:31;5.27;;;2.90;;
17151;SDS011;8691;50.828;4.700;2023-02-27T04:33:37;2.70;;;2.50;;
17151;SDS011;8691;50.828;4.700;2023-02-27T04:36:52;5.33;;;3.03;;
17151;SDS011;8691;50.828;4.700;2023-02-27T04:38:48;3.50;;;3.13;;
17151;SDS011;8691;50.828;4.700;2023-02-27T04:41:15;5.23;;;2.90;;
17151;SDS011;8691;50.828;4.700;2023-02-27T04:43:46;5.27;;;2.80;;
17151;SDS011;8691;50.828;4.700;2023-02-27T04:46:14;5.30;;;2.97;;
17151;SDS011;8691;50.828;4.700;2023-02-27T04:48:44;3.97;;;2.97;;
17151;SDS011;8691;50.828;4.700;2023-02-27T04:51:14;4.23;;;3.10;;
17151;SDS011;8691;50.828;4.700;2023-02-27T04:53:42;4.80;;;2.87;;
17151;SDS011;8691;50.828;4.700;2023-02-27T04:56:07;5.27;;;3.80;;
17151;SDS011;8691;50.828;4.700;2023-02-27T04:58:35;3.47;;;3.10;;
17151;SDS011;8691;50.828;4.700;2023-02-27T05:01:02;6.60;;;2.97;;
17151;SDS011;8691;50.828;4.700;2023-02-27T05:03:29;4.40;;;3.20;;
17151;SDS011;8691;50.828;4.700;2023-02-27T05:05:56;9.15;;;3.90;;
17151;SDS011;8691;50.828;4.700;2023-02-27T05:08:25;5.13;;;3.47;;
17151;SDS011;8691;50.828;4.700;2023-02-27T05:10:52;4.60;;;3.10;;
17151;SDS011;8691;50.828;4.700;2023-02-27T05:13:25;4.80;;;2.97;;
17151;SDS011;8691;50.828;4.700;2023-02-27T05:15:51;3.37;;;2.90;;
17151;SDS011;8691;50.828;4.700;2023-02-27T05:18:28;4.00;;;3.20;;
17151;SDS011;8691;50.828;4.700;2023-02-27T05:20:58;4.40;;;2.80;;
17151;SDS011;8691;50.828;4.700;2023-02-27T05:26:15;5.73;;;3.17;;
17151;SDS011;8691;50.828;4.700;2023-02-27T05:31:36;7.72;;;4.20;;
17151;SDS011;8691;50.828;4.700;2023-02-27T05:34:17;6.93;;;4.10;;
17151;SDS011;8691;50.828;4.700;2023-02-27T05:36:44;6.73;;;4.40;;
17151;SDS011;8691;50.828;4.700;2023-02-27T05:39:09;6.00;;;4.40;;
17151;SDS011;8691;50.828;4.700;2023-02-27T05:41:39;7.53;;;4.73;;
17151;SDS011;8691;50.828;4.700;2023-02-27T05:44:07;8.43;;;4.70;;
17151;SDS011;8691;50.828;4.700;2023-02-27T05:46:41;8.75;;;4.50;;
17151;SDS011;8691;50.828;4.700;2023-02-27T05:49:25;7.20;;;4.22;;
17151;SDS011;8691;50.828;4.700;2023-02-27T05:51:35;5.47;;;3.60;;
17151;SDS011;8691;50.828;4.700;2023-02-27T05:54:02;10.03;;;3.80;;
17151;SDS011;8691;50.828;4.700;2023-02-27T05:56:28;5.93;;;3.50;;
17151;SDS011;8691;50.828;4.700;2023-02-27T05:58:58;4.03;;;3.20;;
17151;SDS011;8691;50.828;4.700;2023-02-27T06:01:33;4.27;;;3.60;;
17151;SDS011;8691;50.828;4.700;2023-02-27T06:04:00;6.57;;;3.73;;
17151;SDS011;8691;50.828;4.700;2023-02-27T06:06:28;4.47;;;3.37;;
17151;SDS011;8691;50.828;4.700;2023-02-27T06:08:54;4.33;;;3.30;;
17151;SDS011;8691;50.828;4.700;2023-02-27T06:11:20;3.60;;;3.30;;
17151;SDS011;8691;50.828;4.700;2023-02-27T06:13:48;4.17;;;3.50;;
17151;SDS011;8691;50.828;4.700;2023-02-27T06:16:14;6.43;;;4.20;;
17151;SDS011;8691;50.828;4.700;2023-02-27T06:18:42;3.80;;;3.50;;
17151;SDS011;8691;50.828;4.700;2023-02-27T06:21:08;4.47;;;3.67;;
17151;SDS011;8691;50.828;4.700;2023-02-27T06:23:36;8.77;;;4.30;;
17151;SDS011;8691;50.828;4.700;2023-02-27T06:26:02;5.00;;;3.63;;
17151;SDS011;8691;50.828;4.700;2023-02-27T06:28:30;5.83;;;3.53;;
17151;SDS011;8691;50.828;4.700;2023-02-27T06:30:56;6.20;;;4.20;;
17151;SDS011;8691;50.828;4.700;2023-02-27T06:33:24;4.60;;;4.20;;
17151;SDS011;8691;50.828;4.700;2023-02-27T06:35:50;6.47;;;4.10;;
17151;SDS011;8691;50.828;4.700;2023-02-27T06:38:18;6.57;;;4.10;;
17151;SDS011;8691;50.828;4.700;2023-02-27T06:40:45;12.57;;;5.65;;
17151;SDS011;8691;50.828;4.700;2023-02-27T06:43:11;5.70;;;4.60;;
17151;SDS011;8691;50.828;4.700;2023-02-27T06:45:38;4.57;;;4.17;;
17151;SDS011;8691;50.828;4.700;2023-02-27T06:48:04;5.20;;;4.30;;
17151;SDS011;8691;50.828;4.700;2023-02-27T06:50:31;4.93;;;4.43;;
17151;SDS011;8691;50.828;4.700;2023-02-27T06:52:58;6.70;;;4.60;;
17151;SDS011;8691;50.828;4.700;2023-02-27T06:55:25;4.70;;;4.30;;
17151;SDS011;8691;50.828;4.700;2023-02-27T06:57:52;4.90;;;4.47;;
17151;SDS011;8691;50.828;4.700;2023-02-27T07:00:19;4.87;;;4.10;;
17151;SDS011;8691;50.828;4.700;2023-02-27T07:02:46;11.83;;;5.33;;
17151;SDS011;8691;50.828;4.700;2023-02-27T07:05:12;5.53;;;4.73;;
17151;SDS011;8691;50.828;4.700;2023-02-27T07:07:40;6.00;;;4.80;;
17151;SDS011;8691;50.828;4.700;2023-02-27T07:10:07;4.60;;;4.13;;
17151;SDS011;8691;50.828;4.700;2023-02-27T07:12:33;5.03;;;4.53;;
17151;SDS011;8691;50.828;4.700;2023-02-27T07:15:00;6.40;;;4.30;;
17151;SDS011;8691;50.828;4.700;2023-02-27T07:17:26;5.67;;;5.00;;
17151;SDS011;8691;50.828;4.700;2023-02-27T07:19:54;7.33;;;4.87;;
17151;SDS011;8691;50.828;4.700;2023-02-27T07:22:20;8.85;;;6.10;;
17151;SDS011;8691;50.828;4.700;2023-02-27T07:24:47;6.17;;;5.00;;
17151;SDS011;8691;50.828;4.700;2023-02-27T07:27:14;5.53;;;4.30;;
17151;SDS011;8691;50.828;4.700;2023-02-27T07:29:41;5.50;;;4.60;;
17151;SDS011;8691;50.828;4.700;2023-02-27T07:32:08;9.43;;;5.47;;
17151;SDS011;8691;50.828;4.700;2023-02-27T07:34:35;7.83;;;4.90;;
17151;SDS011;8691;50.828;4.700;2023-02-27T07:37:02;7.93;;;4.67;;
17151;SDS011;8691;50.828;4.700;2023-02-27T07:39:29;8.07;;;4.90;;
17151;SDS011;8691;50.828;4.700;2023-02-27T07:41:56;9.77;;;5.87;;
17151;SDS011;8691;50.828;4.700;2023-02-27T07:44:24;7.17;;;5.40;;
17151;SDS011;8691;50.828;4.700;2023-02-27T07:46:50;5.93;;;5.17;;
17151;SDS011;8691;50.828;4.700;2023-02-27T07:49:17;8.50;;;4.80;;
17151;SDS011;8691;50.828;4.700;2023-02-27T07:51:44;5.97;;;5.17;;
17151;SDS011;8691;50.828;4.700;2023-02-27T07:54:11;6.80;;;5.10;;
17151;SDS011;8691;50.828;4.700;2023-02-27T07:56:38;6.53;;;5.63;;
17151;SDS011;8691;50.828;4.700;2023-02-27T07:59:06;5.70;;;4.83;;
17151;SDS011;8691;50.828;4.700;2023-02-27T08:01:32;8.33;;;6.43;;
17151;SDS011;8691;50.828;4.700;2023-02-27T08:04:00;9.30;;;6.13;;
17151;SDS011;8691;50.828;4.700;2023-02-27T08:06:26;6.80;;;4.80;;
17151;SDS011;8691;50.828;4.700;2023-02-27T08:08:53;6.33;;;4.50;;
17151;SDS011;8691;50.828;4.700;2023-02-27T08:11:20;8.50;;;4.97;;
17151;SDS011;8691;50.828;4.700;2023-02-27T08:13:46;8.43;;;5.00;;
17151;SDS011;8691;50.828;4.700;2023-02-27T08:16:13;9.03;;;4.67;;
17151;SDS011;8691;50.828;4.700;2023-02-27T08:18:39;5.03;;;3.80;;
17151;SDS011;8691;50.828;4.700;2023-02-27T08:21:06;6.60;;;4.23;;
17151;SDS011;8691;50.828;4.700;2023-02-27T08:23:33;6.33;;;4.27;;
17151;SDS011;8691;50.828;4.700;2023-02-27T08:26:00;4.63;;;3.60;;
17151;SDS011;8691;50.828;4.700;2023-02-27T08:28:27;6.13;;;3.97;;
17151;SDS011;8691;50.828;4.700;2023-02-27T08:30:54;7.60;;;4.43;;
17151;SDS011;8691;50.828;4.700;2023-02-27T08:33:21;5.57;;;3.50;;
17151;SDS011;8691;50.828;4.700;2023-02-27T08:35:47;5.60;;;4.00;;
17151;SDS011;8691;50.828;4.700;2023-02-27T08:38:14;5.17;;;3.67;;
17151;SDS011;8691;50.828;4.700;2023-02-27T08:40:40;6.67;;;4.60;;
17151;SDS011;8691;50.828;4.700;2023-02-27T08:43:07;6.80;;;4.20;;
17151;SDS011;8691;50.828;4.700;2023-02-27T08:45:34;6.80;;;4.07;;
17151;SDS011;8691;50.828;4.700;2023-02-27T08:48:00;4.53;;;3.83;;
17151;SDS011;8691;50.828;4.700;2023-02-27T08:50:27;5.80;;;3.63;;
17151;SDS011;8691;50.828;4.700;2023-02-27T08:52:53;4.40;;;3.50;;
17151;SDS011;8691;50.828;4.700;2023-02-27T08:55:20;5.40;;;3.60;;
17151;SDS011;8691;50.828;4.700;2023-02-27T08:57:47;4.67;;;3.60;;
17151;SDS011;8691;50.828;4.700;2023-02-27T09:00:13;8.40;;;4.30;;
17151;SDS011;8691;50.828;4.700;2023-02-27T09:02:40;4.67;;;3.83;;
17151;SDS011;8691;50.828;4.700;2023-02-27T09:05:07;5.57;;;4.23;;
17151;SDS011;8691;50.828;4.700;2023-02-27T09:07:33;6.03;;;3.77;;
17151;SDS011;8691;50.828;4.700;2023-02-27T09:10:00;7.20;;;4.10;;
17151;SDS011;8691;50.828;4.700;2023-02-27T09:12:27;5.67;;;3.80;;
17151;SDS011;8691;50.828;4.700;2023-02-27T09:14:54;5.03;;;3.47;;
17151;SDS011;8691;50.828;4.700;2023-02-27T09:17:21;3.77;;;3.27;;
17151;SDS011;8691;50.828;4.700;2023-02-27T09:19:48;5.80;;;3.47;;
17151;SDS011;8691;50.828;4.700;2023-02-27T09:22:15;5.30;;;3.50;;
17151;SDS011;8691;50.828;4.700;2023-02-27T09:24:42;6.70;;;3.60;;
17151;SDS011;8691;50.828;4.700;2023-02-27T09:27:09;3.27;;;2.97;;
17151;SDS011;8691;50.828;4.700;2023-02-27T09:29:36;5.87;;;3.33;;
17151;SDS011;8691;50.828;4.700;2023-02-27T09:32:03;5.27;;;3.47;;
17151;SDS011;8691;50.828;4.700;2023-02-27T09:34:30;4.37;;;3.37;;
17151;SDS011;8691;50.828;4.700;2023-02-27T09:36:57;2.53;;;2.33;;
17151;SDS011;8691;50.828;4.700;2023-02-27T09:39:24;3.63;;;2.50;;
17151;SDS011;8691;50.828;4.700;2023-02-27T09:41:55;4.12;;;3.20;;
17151;SDS011;8691;50.828;4.700;2023-02-27T09:44:40;3.80;;;2.77;;
17151;SDS011;8691;50.828;4.700;2023-02-27T09:47:08;3.90;;;2.90;;
17151;SDS011;8691;50.828;4.700;2023-02-27T09:49:35;4.27;;;2.70;;
17151;SDS011;8691;50.828;4.700;2023-02-27T09:51:59;4.17;;;2.60;;
17151;SDS011;8691;50.828;4.700;2023-02-27T09:54:28;2.73;;;2.33;;
17151;SDS011;8691;50.828;4.700;2023-02-27T09:56:55;2.90;;;2.60;;
17151;SDS011;8691;50.828;4.700;2023-02-27T09:59:42;3.50;;;2.40;;
17151;SDS011;8691;50.828;4.700;2023-02-27T10:12:03;2.50;;;2.13;;
17151;SDS011;8691;50.828;4.700;2023-02-27T10:14:41;4.33;;;2.47;;
17151;SDS011;8691;50.828;4.700;2023-02-27T10:17:10;2.70;;;2.25;;
17151;SDS011;8691;50.828;4.700;2023-02-27T10:19:33;3.67;;;2.50;;
17151;SDS011;8691;50.828;4.700;2023-02-27T10:21:59;3.83;;;2.30;;
17151;SDS011;8691;50.828;4.700;2023-02-27T10:27:00;3.35;;;2.30;;
17151;SDS011;8691;50.828;4.700;2023-02-27T10:29:28;3.40;;;2.08;;
17151;SDS011;8691;50.828;4.700;2023-02-27T10:34:27;3.75;;;2.08;;
17151;SDS011;8691;50.828;4.700;2023-02-27T10:36:53;4.00;;;1.90;;
17151;SDS011;8691;50.828;4.700;2023-02-27T10:39:20;3.67;;;2.17;;
17151;SDS011;8691;50.828;4.700;2023-02-27T10:41:47;3.67;;;2.20;;
17151;SDS011;8691;50.828;4.700;2023-02-27T10:44:16;4.10;;;2.40;;
17151;SDS011;8691;50.828;4.700;2023-02-27T10:46:42;4.10;;;2.07;;
17151;SDS011;8691;50.828;4.700;2023-02-27T10:49:28;2.67;;;2.00;;
17151;SDS011;8691;50.828;4.700;2023-02-27T10:51:45;3.30;;;2.30;;
17151;SDS011;8691;50.828;4.700;2023-02-27T10:54:19;3.03;;;2.20;;
17151;SDS011;8691;50.828;4.700;2023-02-27T10:56:48;3.78;;;2.25;;
17151;SDS011;8691;50.828;4.700;2023-02-27T11:02:00;4.20;;;2.10;;
17151;SDS011;8691;50.828;4.700;2023-02-27T11:04:45;4.17;;;2.50;;
17151;SDS011;8691;50.828;4.700;2023-02-27T11:07:08;3.53;;;2.43;;
17151;SDS011;8691;50.828;4.700;2023-02-27T11:09:35;3.80;;;2.40;;
17151;SDS011;8691;50.828;4.700;2023-02-27T11:12:23;2.07;;;1.87;;
17151;SDS011;8691;50.828;4.700;2023-02-27T11:14:51;4.30;;;2.70;;
17151;SDS011;8691;50.828;4.700;2023-02-27T11:17:23;3.42;;;2.12;;
17151;SDS011;8691;50.828;4.700;2023-02-27T11:19:46;3.27;;;2.33;;
17151;SDS011;8691;50.828;4.700;2023-02-27T11:22:13;2.97;;;2.30;;
17151;SDS011;8691;50.828;4.700;2023-02-27T11:24:40;2.85;;;2.22;;
17151;SDS011;8691;50.828;4.700;2023-02-27T11:27:18;2.50;;;2.10;;
17151;SDS011;8691;50.828;4.700;2023-02-27T11:30:02;4.27;;;2.50;;
17151;SDS011;8691;50.828;4.700;2023-02-27T11:32:35;3.67;;;2.47;;
17151;SDS011;8691;50.828;4.700;2023-02-27T11:35:01;2.67;;;2.37;;
17151;SDS011;8691;50.828;4.700;2023-02-27T11:37:32;2.97;;;2.20;;
17151;SDS011;8691;50.828;4.700;2023-02-27T11:42:35;3.50;;;2.65;;
17151;SDS011;8691;50.828;4.700;2023-02-27T11:45:04;3.53;;;2.50;;
17151;SDS011;8691;50.828;4.700;2023-02-27T11:47:32;3.45;;;2.55;;
17151;SDS011;8691;50.828;4.700;2023-02-27T11:50:04;3.70;;;2.70;;
17151;SDS011;8691;50.828;4.700;2023-02-27T11:52:46;5.00;;;2.92;;
17151;SDS011;8691;50.828;4.700;2023-02-27T11:55:13;3.53;;;2.83;;
17151;SDS011;8691;50.828;4.700;2023-02-27T11:57:40;3.58;;;3.00;;
17151;SDS011;8691;50.828;4.700;2023-02-27T12:00:14;4.10;;;3.15;;
17151;SDS011;8691;50.828;4.700;2023-02-27T12:02:50;3.47;;;3.07;;
17151;SDS011;8691;50.828;4.700;2023-02-27T12:07:43;3.60;;;3.30;;
17151;SDS011;8691;50.828;4.700;2023-02-27T12:13:02;4.22;;;3.67;;
17151;SDS011;8691;50.828;4.700;2023-02-27T12:16:19;5.12;;;4.07;;
17151;SDS011;8691;50.828;4.700;2023-02-27T12:18:17;4.55;;;3.53;;
17151;SDS011;8691;50.828;4.700;2023-02-27T12:20:59;4.28;;;3.62;;
17151;SDS011;8691;50.828;4.700;2023-02-27T12:23:42;5.00;;;3.80;;
17151;SDS011;8691;50.828;4.700;2023-02-27T12:26:38;4.93;;;3.50;;
17151;SDS011;8691;50.828;4.700;2023-02-27T12:29:21;4.65;;;3.97;;
17151;SDS011;8691;50.828;4.700;2023-02-27T12:32:13;4.43;;;3.93;;
17151;SDS011;8691;50.828;4.700;2023-02-27T12:34:42;4.80;;;3.97;;
17151;SDS011;8691;50.828;4.700;2023-02-27T12:37:10;4.35;;;3.92;;
17151;SDS011;8691;50.828;4.700;2023-02-27T12:39:37;4.55;;;4.15;;
17151;SDS011;8691;50.828;4.700;2023-02-27T12:42:14;4.90;;;4.40;;
17151;SDS011;8691;50.828;4.700;2023-02-27T12:50:23;3.90;;;3.60;;
17151;SDS011;8691;50.828;4.700;2023-02-27T12:53:04;5.50;;;3.75;;
17151;SDS011;8691;50.828;4.700;2023-02-27T12:58:13;4.50;;;4.10;;
17151;SDS011;8691;50.828;4.700;2023-02-27T13:00:44;4.30;;;3.90;;
17151;SDS011;8691;50.828;4.700;2023-02-27T13:08:37;4.55;;;4.15;;
17151;SDS011;8691;50.828;4.700;2023-02-27T13:11:17;5.43;;;4.73;;
17151;SDS011;8691;50.828;4.700;2023-02-27T13:13:52;5.07;;;4.47;;
17151;SDS011;8691;50.828;4.700;2023-02-27T13:16:30;4.40;;;3.93;;
17151;SDS011;8691;50.828;4.700;2023-02-27T13:18:58;3.90;;;3.60;;
17151;SDS011;8691;50.828;4.700;2023-02-27T13:26:42;3.83;;;3.30;;
17151;SDS011;8691;50.828;4.700;2023-02-27T13:29:11;3.78;;;3.45;;
17151;SDS011;8691;50.828;4.700;2023-02-27T13:31:41;4.07;;;3.33;;
17151;SDS011;8691;50.828;4.700;2023-02-27T13:36:44;5.38;;;3.78;;
17151;SDS011;8691;50.828;4.700;2023-02-27T13:42:08;3.63;;;3.33;;
17151;SDS011;8691;50.828;4.700;2023-02-27T13:44:39;3.90;;;3.20;;
17151;SDS011;8691;50.828;4.700;2023-02-27T13:49:55;4.40;;;2.80;;
17151;SDS011;8691;50.828;4.700;2023-02-27T13:52:28;3.07;;;2.80;;
17151;SDS011;8691;50.828;4.700;2023-02-27T13:54:57;3.45;;;2.90;;
17151;SDS011;8691;50.828;4.700;2023-02-27T13:57:30;4.00;;;2.60;;
17151;SDS011;8691;50.828;4.700;2023-02-27T13:59:54;3.08;;;2.33;;
17151;SDS011;8691;50.828;4.700;2023-02-27T14:02:33;3.55;;;2.28;;
17151;SDS011;8691;50.828;4.700;2023-02-27T14:05:01;2.70;;;2.20;;
17151;SDS011;8691;50.828;4.700;2023-02-27T14:07:27;3.60;;;2.30;;
17151;SDS011;8691;50.828;4.700;2023-02-27T14:10:07;3.50;;;2.27;;
17151;SDS011;8691;50.828;4.700;2023-02-27T14:12:34;2.42;;;2.22;;
17151;SDS011;8691;50.828;4.700;2023-02-27T14:15:04;3.27;;;2.27;;
17151;SDS011;8691;50.828;4.700;2023-02-27T14:22:35;3.30;;;2.30;;
17151;SDS011;8691;50.828;4.700;2023-02-27T14:25:02;2.97;;;2.10;;
17151;SDS011;8691;50.828;4.700;2023-02-27T14:27:45;2.27;;;1.93;;
17151;SDS011;8691;50.828;4.700;2023-02-27T14:29:59;3.63;;;2.40;;
17151;SDS011;8691;50.828;4.700;2023-02-27T14:32:30;2.88;;;2.10;;
17151;SDS011;8691;50.828;4.700;2023-02-27T14:34:52;3.15;;;2.28;;
17151;SDS011;8691;50.828;4.700;2023-02-27T14:37:19;2.40;;;2.17;;
17151;SDS011;8691;50.828;4.700;2023-02-27T14:39:46;3.10;;;2.07;;
17151;SDS011;8691;50.828;4.700;2023-02-27T14:44:55;2.77;;;2.00;;
17151;SDS011;8691;50.828;4.700;2023-02-27T14:47:27;2.10;;;1.83;;
17151;SDS011;8691;50.828;4.700;2023-02-27T14:49:57;3.08;;;1.90;;
17151;SDS011;8691;50.828;4.700;2023-02-27T14:52:27;3.58;;;2.00;;
17151;SDS011;8691;50.828;4.700;2023-02-27T14:54:59;2.80;;;1.90;;
17151;SDS011;8691;50.828;4.700;2023-02-27T14:57:21;2.33;;;1.80;;
17151;SDS011;8691;50.828;4.700;2023-02-27T14:59:48;4.23;;;2.10;;
17151;SDS011;8691;50.828;4.700;2023-02-27T15:02:20;2.30;;;1.77;;
17151;SDS011;8691;50.828;4.700;2023-02-27T15:04:53;3.50;;;2.20;;
17151;SDS011;8691;50.828;4.700;2023-02-27T15:07:21;3.30;;;2.10;;
17151;SDS011;8691;50.828;4.700;2023-02-27T15:09:48;3.13;;;2.20;;
17151;SDS011;8691;50.828;4.700;2023-02-27T15:12:16;3.20;;;2.13;;
17151;SDS011;8691;50.828;4.700;2023-02-27T15:15:06;2.50;;;2.00;;
17151;SDS011;8691;50.828;4.700;2023-02-27T15:17:21;2.78;;;2.20;;
17151;SDS011;8691;50.828;4.700;2023-02-27T15:19:48;3.22;;;2.25;;
17151;SDS011;8691;50.828;4.700;2023-02-27T15:22:19;2.75;;;2.40;;
17151;SDS011;8691;50.828;4.700;2023-02-27T15:24:45;2.67;;;1.73;;
17151;SDS011;8691;50.828;4.700;2023-02-27T15:27:14;3.47;;;2.30;;
17151;SDS011;8691;50.828;4.700;2023-02-27T15:29:44;2.97;;;2.20;;
17151;SDS011;8691;50.828;4.700;2023-02-27T15:32:16;4.05;;;2.30;;
17151;SDS011;8691;50.828;4.700;2023-02-27T15:34:40;3.90;;;2.28;;
17151;SDS011;8691;50.828;4.700;2023-02-27T15:37:07;3.58;;;2.40;;
17151;SDS011;8691;50.828;4.700;2023-02-27T15:39:34;2.20;;;2.00;;
17151;SDS011;8691;50.828;4.700;2023-02-27T15:42:02;3.73;;;2.80;;
17151;SDS011;8691;50.828;4.700;2023-02-27T15:44:33;3.92;;;2.80;;
17151;SDS011;8691;50.828;4.700;2023-02-27T15:46:57;2.65;;;2.45;;
17151;SDS011;8691;50.828;4.700;2023-02-27T15:49:24;3.08;;;2.47;;
17151;SDS011;8691;50.828;4.700;2023-02-27T15:51:59;3.30;;;2.90;;
17151;SDS011;8691;50.828;4.700;2023-02-27T15:54:25;3.17;;;2.78;;
17151;SDS011;8691;50.828;4.700;2023-02-27T15:56:51;3.00;;;2.70;;
17151;SDS011;8691;50.828;4.700;2023-02-27T15:59:20;3.80;;;2.62;;
17151;SDS011;8691;50.828;4.700;2023-02-27T16:01:47;2.97;;;2.40;;
17151;SDS011;8691;50.828;4.700;2023-02-27T16:04:18;2.87;;;2.47;;
17151;SDS011;8691;50.828;4.700;2023-02-27T16:06:45;2.87;;;2.40;;
17151;SDS011;8691;50.828;4.700;2023-02-27T16:09:24;4.23;;;3.90;;
17151;SDS011;8691;50.828;4.700;2023-02-27T16:11:47;3.33;;;2.67;;
17151;SDS011;8691;50.828;4.700;2023-02-27T16:17:02;3.30;;;2.80;;
17151;SDS011;8691;50.828;4.700;2023-02-27T16:19:29;3.40;;;2.60;;
17151;SDS011;8691;50.828;4.700;2023-02-27T16:22:03;2.80;;;2.50;;
17151;SDS011;8691;50.828;4.700;2023-02-27T16:24:29;3.33;;;2.43;;
17151;SDS011;8691;50.828;4.700;2023-02-27T16:26:56;2.40;;;2.20;;
17151;SDS011;8691;50.828;4.700;2023-02-27T16:29:27;3.90;;;2.53;;
17151;SDS011;8691;50.828;4.700;2023-02-27T16:31:55;3.27;;;2.70;;
17151;SDS011;8691;50.828;4.700;2023-02-27T16:36:53;3.67;;;2.80;;
17151;SDS011;8691;50.828;4.700;2023-02-27T16:39:19;3.97;;;2.62;;
17151;SDS011;8691;50.828;4.700;2023-02-27T16:41:46;2.75;;;2.55;;
17151;SDS011;8691;50.828;4.700;2023-02-27T16:44:13;2.90;;;2.50;;
17151;SDS011;8691;50.828;4.700;2023-02-27T16:46:41;3.80;;;2.55;;
17151;SDS011;8691;50.828;4.700;2023-02-27T16:49:08;3.77;;;3.00;;
17151;SDS011;8691;50.828;4.700;2023-02-27T16:51:35;3.28;;;2.50;;
17151;SDS011;8691;50.828;4.700;2023-02-27T16:54:01;4.62;;;2.30;;
17151;SDS011;8691;50.828;4.700;2023-02-27T16:56:29;2.70;;;2.30;;
17151;SDS011;8691;50.828;4.700;2023-02-27T16:58:56;3.73;;;2.60;;
17151;SDS011;8691;50.828;4.700;2023-02-27T17:01:23;3.37;;;2.70;;
17151;SDS011;8691;50.828;4.700;2023-02-27T17:03:51;4.85;;;2.55;;